BWA483 KMIA-TTPP
Flight info
| Callsign | BWA483 |
|---|---|
| Flight time | N/A |
| Altitude | 37000 |
| Route | ZQA133131 HARBG L452 ANADA UG449 PERGA ITRAK NAPKO LEXOR TALUS TTPP |
| Aircraft | B38M/M-MSDE3FGHIRWYLB1/HB1 |
Departure
| Time | N/A |
|---|---|
| Airport | Miami International Airport (KMIA) |
Arrival
| Time | 2026-05-03 22:45 |
|---|---|
| Airport | Piarco International Airport (TTPP) |
| Time | Latitude | Longitude | Altitude | Speed | Heading |
|---|---|---|---|---|---|
| 2026-05-03 20:15 | 23.59620 | -75.08656 | 37040 ft | 473 kts | 123° |
| 2026-05-03 20:15 | 23.56127 | -75.02560 | 37033 ft | 474 kts | 123° |
| 2026-05-03 20:16 | 23.52657 | -74.96514 | 37032 ft | 473 kts | 124° |
| 2026-05-03 20:16 | 23.49163 | -74.90434 | 37032 ft | 473 kts | 124° |
| 2026-05-03 20:17 | 23.45665 | -74.84354 | 37033 ft | 473 kts | 124° |
| 2026-05-03 20:17 | 23.42166 | -74.78278 | 37033 ft | 473 kts | 123° |
| 2026-05-03 20:18 | 23.38665 | -74.72207 | 37034 ft | 473 kts | 123° |
| 2026-05-03 20:18 | 23.35160 | -74.66138 | 37041 ft | 473 kts | 123° |
| 2026-05-03 20:19 | 23.31660 | -74.60083 | 37038 ft | 473 kts | 123° |
| 2026-05-03 20:19 | 23.28152 | -74.54023 | 37036 ft | 473 kts | 123° |
| 2026-05-03 20:20 | 23.24641 | -74.47963 | 37033 ft | 473 kts | 124° |
| 2026-05-03 20:20 | 23.21130 | -74.41912 | 37034 ft | 473 kts | 124° |
| 2026-05-03 20:21 | 23.17618 | -74.35865 | 37042 ft | 473 kts | 124° |
| 2026-05-03 20:21 | 23.14103 | -74.29820 | 37041 ft | 473 kts | 124° |
| 2026-05-03 20:22 | 23.10587 | -74.23781 | 37035 ft | 473 kts | 124° |
| 2026-05-03 20:22 | 23.07065 | -74.17741 | 37037 ft | 473 kts | 124° |
| 2026-05-03 20:23 | 23.03565 | -74.11742 | 37033 ft | 473 kts | 124° |
| 2026-05-03 20:23 | 23.00044 | -74.05716 | 37028 ft | 473 kts | 124° |
| 2026-05-03 20:24 | 22.96496 | -73.99651 | 37027 ft | 473 kts | 124° |
| 2026-05-03 20:24 | 22.92970 | -73.93630 | 37028 ft | 473 kts | 124° |
| 2026-05-03 20:25 | 22.89466 | -73.87653 | 37028 ft | 473 kts | 123° |
| 2026-05-03 20:25 | 22.85937 | -73.81642 | 37027 ft | 473 kts | 123° |
| 2026-05-03 20:26 | 22.82405 | -73.75631 | 37026 ft | 472 kts | 123° |
| 2026-05-03 20:26 | 22.78875 | -73.69631 | 37026 ft | 472 kts | 123° |
| 2026-05-03 20:27 | 22.75340 | -73.63631 | 37018 ft | 472 kts | 124° |
| 2026-05-03 20:27 | 22.71802 | -73.57632 | 37020 ft | 472 kts | 124° |
| 2026-05-03 20:28 | 22.68265 | -73.51641 | 37018 ft | 472 kts | 124° |
| 2026-05-03 20:28 | 22.64719 | -73.45641 | 37017 ft | 473 kts | 124° |
| 2026-05-03 20:29 | 22.61171 | -73.39645 | 37017 ft | 473 kts | 124° |
| 2026-05-03 20:29 | 22.57621 | -73.33653 | 37008 ft | 473 kts | 124° |
| 2026-05-03 20:30 | 22.54073 | -73.27670 | 37007 ft | 472 kts | 124° |
| 2026-05-03 20:30 | 22.50521 | -73.21689 | 37009 ft | 473 kts | 124° |
| 2026-05-03 20:31 | 22.46967 | -73.15710 | 37007 ft | 473 kts | 124° |
| 2026-05-03 20:31 | 22.43411 | -73.09734 | 37008 ft | 473 kts | 124° |
| 2026-05-03 20:32 | 22.39850 | -73.03758 | 37006 ft | 473 kts | 124° |
| 2026-05-03 20:32 | 22.36288 | -72.97786 | 37000 ft | 472 kts | 124° |
| 2026-05-03 20:33 | 22.32728 | -72.91825 | 36998 ft | 473 kts | 124° |
| 2026-05-03 20:33 | 22.29159 | -72.85854 | 36999 ft | 473 kts | 124° |
| 2026-05-03 20:34 | 22.25593 | -72.79895 | 36997 ft | 473 kts | 124° |
| 2026-05-03 20:34 | 22.22023 | -72.73937 | 37000 ft | 473 kts | 124° |
| 2026-05-03 20:35 | 22.18446 | -72.67974 | 36998 ft | 473 kts | 124° |
| 2026-05-03 20:35 | 22.14865 | -72.62011 | 37000 ft | 473 kts | 124° |
| 2026-05-03 20:36 | 22.11309 | -72.56095 | 37000 ft | 473 kts | 124° |
| 2026-05-03 20:36 | 22.07729 | -72.50146 | 36998 ft | 473 kts | 124° |
| 2026-05-03 20:37 | 22.04142 | -72.44193 | 36998 ft | 473 kts | 124° |
| 2026-05-03 20:37 | 22.00531 | -72.38207 | 36990 ft | 473 kts | 124° |
| 2026-05-03 20:38 | 21.96965 | -72.32300 | 36990 ft | 473 kts | 124° |
| 2026-05-03 20:38 | 21.93373 | -72.26358 | 36989 ft | 473 kts | 124° |
| 2026-05-03 20:39 | 21.89778 | -72.20419 | 36990 ft | 473 kts | 124° |
| 2026-05-03 20:39 | 21.86185 | -72.14487 | 36990 ft | 473 kts | 124° |
| 2026-05-03 20:40 | 21.82586 | -72.08554 | 36989 ft | 473 kts | 124° |
| 2026-05-03 20:40 | 21.78987 | -72.02625 | 36991 ft | 473 kts | 124° |
| 2026-05-03 20:41 | 21.75386 | -71.96701 | 36989 ft | 473 kts | 124° |
| 2026-05-03 20:41 | 21.71783 | -71.90780 | 36990 ft | 473 kts | 124° |
| 2026-05-03 20:42 | 21.68178 | -71.84862 | 36990 ft | 473 kts | 124° |
| 2026-05-03 20:42 | 21.64572 | -71.78948 | 36990 ft | 473 kts | 124° |
| 2026-05-03 20:43 | 21.60966 | -71.73040 | 36990 ft | 473 kts | 124° |
| 2026-05-03 20:43 | 21.57358 | -71.67136 | 36991 ft | 473 kts | 124° |
| 2026-05-03 20:44 | 21.53748 | -71.61236 | 36990 ft | 472 kts | 124° |
| 2026-05-03 20:44 | 21.50136 | -71.55337 | 36990 ft | 472 kts | 124° |
| 2026-05-03 20:45 | 21.46523 | -71.49443 | 36989 ft | 472 kts | 124° |
| 2026-05-03 20:45 | 21.42911 | -71.43558 | 36989 ft | 472 kts | 124° |
| 2026-05-03 20:46 | 21.39317 | -71.37709 | 36991 ft | 472 kts | 124° |
| 2026-05-03 20:46 | 21.35701 | -71.31829 | 36988 ft | 472 kts | 124° |
| 2026-05-03 20:47 | 21.32059 | -71.25914 | 36990 ft | 472 kts | 124° |
| 2026-05-03 20:47 | 21.28461 | -71.20075 | 36992 ft | 474 kts | 124° |
| 2026-05-03 20:48 | 21.24805 | -71.14152 | 36986 ft | 478 kts | 124° |
| 2026-05-03 20:48 | 21.21132 | -71.08204 | 36989 ft | 479 kts | 124° |
| 2026-05-03 20:49 | 21.17456 | -71.02259 | 36990 ft | 478 kts | 124° |
| 2026-05-03 20:49 | 21.13780 | -70.96319 | 36990 ft | 478 kts | 124° |
| 2026-05-03 20:50 | 21.10102 | -70.90383 | 36990 ft | 478 kts | 124° |
| 2026-05-03 20:50 | 21.06425 | -70.84454 | 36988 ft | 478 kts | 124° |
| 2026-05-03 20:51 | 21.02745 | -70.78529 | 36988 ft | 478 kts | 124° |
| 2026-05-03 20:51 | 20.99066 | -70.72609 | 36990 ft | 478 kts | 124° |
| 2026-05-03 20:52 | 20.95382 | -70.66689 | 36991 ft | 477 kts | 124° |
| 2026-05-03 20:52 | 20.91701 | -70.60779 | 36990 ft | 477 kts | 124° |
| 2026-05-03 20:53 | 20.88017 | -70.54871 | 36990 ft | 477 kts | 124° |
| 2026-05-03 20:53 | 20.84333 | -70.48968 | 36990 ft | 477 kts | 124° |
| 2026-05-03 20:54 | 20.81269 | -70.44064 | 36989 ft | 477 kts | 124° |
| 2026-05-03 20:54 | 20.75139 | -70.34265 | 36990 ft | 477 kts | 124° |
| 2026-05-03 20:55 | 20.71449 | -70.28375 | 36989 ft | 477 kts | 124° |
| 2026-05-03 20:55 | 20.67757 | -70.22488 | 36992 ft | 477 kts | 124° |
| 2026-05-03 20:56 | 20.64689 | -70.17600 | 36989 ft | 477 kts | 124° |
| 2026-05-03 20:56 | 20.60994 | -70.11718 | 36997 ft | 477 kts | 124° |
| 2026-05-03 20:57 | 20.57299 | -70.05842 | 36988 ft | 477 kts | 124° |
| 2026-05-03 20:57 | 20.53604 | -69.99974 | 36990 ft | 476 kts | 124° |
| 2026-05-03 20:58 | 20.49909 | -69.94110 | 36990 ft | 476 kts | 124° |
| 2026-05-03 20:58 | 20.46209 | -69.88245 | 36990 ft | 476 kts | 124° |
| 2026-05-03 20:59 | 20.42507 | -69.82383 | 36990 ft | 476 kts | 124° |
| 2026-05-03 20:59 | 20.38804 | -69.76524 | 36989 ft | 476 kts | 124° |
| 2026-05-03 21:00 | 20.35725 | -69.71658 | 36990 ft | 476 kts | 124° |
| 2026-05-03 21:00 | 20.31397 | -69.64825 | 36983 ft | 476 kts | 124° |
| 2026-05-03 21:01 | 20.27693 | -69.58981 | 37005 ft | 476 kts | 124° |
| 2026-05-03 21:01 | 20.23986 | -69.53141 | 37008 ft | 476 kts | 124° |
| 2026-05-03 21:02 | 20.20275 | -69.47300 | 37008 ft | 476 kts | 124° |
| 2026-05-03 21:02 | 20.16564 | -69.41463 | 37008 ft | 476 kts | 124° |
| 2026-05-03 21:03 | 20.12852 | -69.35632 | 37015 ft | 476 kts | 124° |
| 2026-05-03 21:03 | 20.09137 | -69.29802 | 37009 ft | 476 kts | 124° |
| 2026-05-03 21:04 | 20.05420 | -69.23973 | 37009 ft | 476 kts | 124° |
| 2026-05-03 21:04 | 20.01726 | -69.18188 | 37008 ft | 476 kts | 124° |
| 2026-05-03 21:05 | 19.97984 | -69.12332 | 37007 ft | 475 kts | 124° |
| 2026-05-03 21:05 | 19.94290 | -69.06559 | 37008 ft | 476 kts | 124° |
| 2026-05-03 21:06 | 19.90565 | -69.00741 | 37008 ft | 476 kts | 124° |
| 2026-05-03 21:06 | 19.86816 | -68.94951 | 37001 ft | 475 kts | 128° |
| 2026-05-03 21:07 | 19.82707 | -68.89446 | 37008 ft | 476 kts | 128° |
| 2026-05-03 21:07 | 19.78638 | -68.83912 | 37012 ft | 476 kts | 128° |
| 2026-05-03 21:08 | 19.74572 | -68.78371 | 37006 ft | 475 kts | 128° |
| 2026-05-03 21:08 | 19.70503 | -68.72830 | 37006 ft | 475 kts | 128° |
| 2026-05-03 21:09 | 19.66436 | -68.67297 | 37008 ft | 475 kts | 128° |
| 2026-05-03 21:09 | 19.62366 | -68.61764 | 37008 ft | 476 kts | 128° |
| 2026-05-03 21:10 | 19.58294 | -68.56235 | 37009 ft | 476 kts | 128° |
| 2026-05-03 21:10 | 19.54246 | -68.50742 | 37008 ft | 476 kts | 128° |
| 2026-05-03 21:11 | 19.50143 | -68.45180 | 37018 ft | 476 kts | 128° |
| 2026-05-03 21:11 | 19.46094 | -68.39696 | 37017 ft | 476 kts | 128° |
| 2026-05-03 21:12 | 19.42015 | -68.34177 | 37016 ft | 475 kts | 128° |
| 2026-05-03 21:12 | 19.37935 | -68.28662 | 37045 ft | 476 kts | 128° |
| 2026-05-03 21:13 | 19.33854 | -68.23149 | 37035 ft | 476 kts | 128° |
| 2026-05-03 21:13 | 19.29771 | -68.17639 | 37042 ft | 475 kts | 128° |
| 2026-05-03 21:14 | 19.25687 | -68.12133 | 37044 ft | 476 kts | 128° |
| 2026-05-03 21:14 | 19.21598 | -68.06626 | 37032 ft | 476 kts | 128° |
| 2026-05-03 21:15 | 19.17505 | -68.01117 | 37033 ft | 476 kts | 128° |
| 2026-05-03 21:15 | 19.13411 | -67.95612 | 37041 ft | 476 kts | 128° |
| 2026-05-03 21:16 | 19.09326 | -67.90126 | 37040 ft | 475 kts | 128° |
| 2026-05-03 21:16 | 19.05269 | -67.84679 | 37033 ft | 475 kts | 128° |
| 2026-05-03 21:17 | 19.01845 | -67.80088 | 37040 ft | 475 kts | 128° |
| 2026-05-03 21:17 | 18.97080 | -67.73713 | 37042 ft | 475 kts | 128° |
| 2026-05-03 21:18 | 18.92989 | -67.68242 | 37047 ft | 475 kts | 128° |
| 2026-05-03 21:18 | 18.88889 | -67.62766 | 37044 ft | 475 kts | 128° |
| 2026-05-03 21:19 | 18.84795 | -67.57301 | 37046 ft | 474 kts | 128° |
| 2026-05-03 21:19 | 18.80703 | -67.51845 | 37048 ft | 474 kts | 128° |
| 2026-05-03 21:20 | 18.76609 | -67.46390 | 37044 ft | 474 kts | 128° |
| 2026-05-03 21:20 | 18.72511 | -67.40935 | 37044 ft | 474 kts | 128° |
| 2026-05-03 21:21 | 18.68413 | -67.35485 | 37046 ft | 475 kts | 128° |
| 2026-05-03 21:21 | 18.64307 | -67.30028 | 37045 ft | 475 kts | 128° |
| 2026-05-03 21:22 | 18.60203 | -67.24580 | 37048 ft | 475 kts | 128° |
| 2026-05-03 21:22 | 18.56097 | -67.19132 | 37045 ft | 474 kts | 128° |
| 2026-05-03 21:23 | 18.51995 | -67.13696 | 37048 ft | 473 kts | 128° |
| 2026-05-03 21:23 | 18.47405 | -67.08765 | 37065 ft | 472 kts | 140° |
| 2026-05-03 21:24 | 18.42334 | -67.04333 | 37049 ft | 473 kts | 140° |
| 2026-05-03 21:24 | 18.37245 | -66.99916 | 37045 ft | 474 kts | 140° |
| 2026-05-03 21:25 | 18.32157 | -66.95507 | 37043 ft | 474 kts | 140° |
| 2026-05-03 21:25 | 18.27102 | -66.91131 | 37038 ft | 474 kts | 140° |
| 2026-05-03 21:26 | 18.22007 | -66.86724 | 37038 ft | 474 kts | 140° |
| 2026-05-03 21:26 | 18.16914 | -66.82322 | 37024 ft | 474 kts | 140° |
| 2026-05-03 21:27 | 18.11824 | -66.77926 | 37029 ft | 473 kts | 140° |
| 2026-05-03 21:27 | 18.06739 | -66.73538 | 37019 ft | 473 kts | 140° |
| 2026-05-03 21:28 | 18.01649 | -66.69149 | 37017 ft | 473 kts | 140° |
| 2026-05-03 21:28 | 17.96559 | -66.64763 | 37025 ft | 473 kts | 140° |
| 2026-05-03 21:29 | 17.91465 | -66.60377 | 37027 ft | 474 kts | 140° |
| 2026-05-03 21:29 | 17.86369 | -66.55994 | 37028 ft | 473 kts | 140° |
| 2026-05-03 21:30 | 17.81273 | -66.51613 | 37027 ft | 473 kts | 140° |
| 2026-05-03 21:30 | 17.76178 | -66.47236 | 37026 ft | 473 kts | 140° |
| 2026-05-03 21:31 | 17.71078 | -66.42859 | 37026 ft | 473 kts | 140° |
| 2026-05-03 21:31 | 17.65986 | -66.38492 | 37027 ft | 473 kts | 140° |
| 2026-05-03 21:32 | 17.60894 | -66.34127 | 37027 ft | 473 kts | 140° |
| 2026-05-03 21:32 | 17.55798 | -66.29763 | 37027 ft | 473 kts | 140° |
| 2026-05-03 21:33 | 17.50695 | -66.25396 | 37026 ft | 473 kts | 140° |
| 2026-05-03 21:33 | 17.45592 | -66.21033 | 37030 ft | 474 kts | 140° |
| 2026-05-03 21:34 | 17.40490 | -66.16673 | 37032 ft | 473 kts | 140° |
| 2026-05-03 21:34 | 17.35382 | -66.12311 | 37033 ft | 473 kts | 140° |
| 2026-05-03 21:35 | 17.30278 | -66.07956 | 37040 ft | 473 kts | 140° |
| 2026-05-03 21:35 | 17.25206 | -66.03633 | 37033 ft | 473 kts | 140° |
| 2026-05-03 21:36 | 17.20097 | -65.99280 | 37044 ft | 474 kts | 140° |
| 2026-05-03 21:36 | 17.14989 | -65.94932 | 37033 ft | 473 kts | 140° |
| 2026-05-03 21:37 | 17.09884 | -65.90589 | 37037 ft | 473 kts | 140° |
| 2026-05-03 21:37 | 17.04773 | -65.86244 | 37037 ft | 474 kts | 140° |
| 2026-05-03 21:38 | 16.99648 | -65.81891 | 37033 ft | 474 kts | 140° |
| 2026-05-03 21:38 | 16.94534 | -65.77550 | 37043 ft | 474 kts | 140° |
| 2026-05-03 21:39 | 16.89414 | -65.73207 | 37038 ft | 474 kts | 140° |
| 2026-05-03 21:39 | 16.84294 | -65.68867 | 37036 ft | 474 kts | 140° |
| 2026-05-03 21:40 | 16.79170 | -65.64527 | 37042 ft | 475 kts | 140° |
| 2026-05-03 21:40 | 16.74043 | -65.60187 | 37041 ft | 474 kts | 140° |
| 2026-05-03 21:41 | 16.68914 | -65.55848 | 37046 ft | 475 kts | 140° |
| 2026-05-03 21:41 | 16.63787 | -65.51513 | 37043 ft | 475 kts | 140° |
| 2026-05-03 21:42 | 16.58685 | -65.47205 | 37047 ft | 475 kts | 140° |
| 2026-05-03 21:42 | 16.53553 | -65.42875 | 37046 ft | 475 kts | 140° |
| 2026-05-03 21:43 | 16.48422 | -65.38547 | 37044 ft | 475 kts | 140° |
| 2026-05-03 21:43 | 16.43287 | -65.34218 | 37047 ft | 475 kts | 140° |
| 2026-05-03 21:44 | 16.38984 | -65.30594 | 37045 ft | 475 kts | 140° |
| 2026-05-03 21:44 | 16.33852 | -65.26274 | 37041 ft | 474 kts | 140° |
| 2026-05-03 21:45 | 16.28749 | -65.21981 | 37046 ft | 475 kts | 140° |
| 2026-05-03 21:45 | 16.23579 | -65.17635 | 37043 ft | 475 kts | 140° |
| 2026-05-03 21:46 | 16.18441 | -65.13318 | 37039 ft | 475 kts | 140° |
| 2026-05-03 21:46 | 16.13339 | -65.09035 | 37041 ft | 475 kts | 141° |
| 2026-05-03 21:47 | 16.08199 | -65.04724 | 37037 ft | 475 kts | 141° |
| 2026-05-03 21:47 | 16.03058 | -65.00414 | 37034 ft | 474 kts | 141° |
| 2026-05-03 21:48 | 15.97923 | -64.96113 | 37032 ft | 475 kts | 141° |
| 2026-05-03 21:48 | 15.92772 | -64.91800 | 37034 ft | 475 kts | 141° |
| 2026-05-03 21:49 | 15.87627 | -64.87496 | 37034 ft | 475 kts | 141° |
| 2026-05-03 21:49 | 15.82476 | -64.83189 | 37024 ft | 475 kts | 141° |
| 2026-05-03 21:50 | 15.77326 | -64.78887 | 37027 ft | 475 kts | 141° |
| 2026-05-03 21:50 | 15.72167 | -64.74580 | 37026 ft | 475 kts | 141° |
| 2026-05-03 21:51 | 15.67017 | -64.70283 | 37026 ft | 475 kts | 141° |
| 2026-05-03 21:51 | 15.61868 | -64.65990 | 37027 ft | 475 kts | 141° |
| 2026-05-03 21:52 | 15.56714 | -64.61696 | 37026 ft | 475 kts | 141° |
| 2026-05-03 21:52 | 15.51561 | -64.57404 | 37027 ft | 475 kts | 141° |
| 2026-05-03 21:53 | 15.46403 | -64.53112 | 37024 ft | 475 kts | 141° |
| 2026-05-03 21:53 | 15.41285 | -64.48856 | 37027 ft | 475 kts | 141° |
| 2026-05-03 21:54 | 15.36127 | -64.44570 | 37027 ft | 475 kts | 141° |
| 2026-05-03 21:54 | 15.30969 | -64.40286 | 37029 ft | 475 kts | 141° |
| 2026-05-03 21:55 | 15.25808 | -64.36003 | 37032 ft | 476 kts | 141° |
| 2026-05-03 21:55 | 15.20641 | -64.31717 | 37032 ft | 476 kts | 141° |
| 2026-05-03 21:56 | 15.15476 | -64.27436 | 37036 ft | 476 kts | 141° |
| 2026-05-03 21:56 | 15.10310 | -64.23156 | 37041 ft | 476 kts | 141° |
| 2026-05-03 21:57 | 15.05139 | -64.18875 | 37026 ft | 476 kts | 141° |
| 2026-05-03 21:57 | 14.99933 | -64.14652 | 37018 ft | 476 kts | 147° |
| 2026-05-03 21:58 | 14.94277 | -64.11076 | 37022 ft | 477 kts | 148° |
| 2026-05-03 21:58 | 14.88594 | -64.07542 | 37026 ft | 477 kts | 149° |
| 2026-05-03 21:59 | 14.82910 | -64.04016 | 37024 ft | 477 kts | 149° |
| 2026-05-03 21:59 | 14.77219 | -64.00488 | 37013 ft | 477 kts | 149° |
| 2026-05-03 22:00 | 14.71527 | -63.96961 | 36999 ft | 476 kts | 149° |
| 2026-05-03 22:00 | 14.65838 | -63.93438 | 37000 ft | 477 kts | 149° |
| 2026-05-03 22:01 | 14.60142 | -63.89914 | 36999 ft | 477 kts | 149° |
| 2026-05-03 22:01 | 14.54488 | -63.86417 | 37001 ft | 477 kts | 149° |
| 2026-05-03 22:02 | 14.48790 | -63.82895 | 36999 ft | 477 kts | 149° |
| 2026-05-03 22:02 | 14.43094 | -63.79376 | 36992 ft | 477 kts | 149° |
| 2026-05-03 22:03 | 14.37390 | -63.75855 | 36987 ft | 478 kts | 149° |
| 2026-05-03 22:03 | 14.31684 | -63.72334 | 36989 ft | 478 kts | 149° |
| 2026-05-03 22:04 | 14.25973 | -63.68813 | 36986 ft | 478 kts | 149° |
| 2026-05-03 22:04 | 14.20268 | -63.65298 | 36990 ft | 478 kts | 149° |
| 2026-05-03 22:05 | 14.14562 | -63.61785 | 36989 ft | 478 kts | 149° |
| 2026-05-03 22:05 | 14.08855 | -63.58274 | 36991 ft | 478 kts | 149° |
| 2026-05-03 22:06 | 14.03146 | -63.54765 | 36991 ft | 478 kts | 149° |
| 2026-05-03 22:06 | 13.97437 | -63.51259 | 36982 ft | 478 kts | 149° |
| 2026-05-03 22:07 | 13.91721 | -63.47749 | 36994 ft | 478 kts | 149° |
| 2026-05-03 22:07 | 13.86001 | -63.44240 | 36999 ft | 478 kts | 149° |
| 2026-05-03 22:08 | 13.80287 | -63.40736 | 36999 ft | 478 kts | 149° |
| 2026-05-03 22:08 | 13.74567 | -63.37231 | 36999 ft | 478 kts | 149° |
| 2026-05-03 22:09 | 13.68852 | -63.33730 | 36999 ft | 478 kts | 149° |
| 2026-05-03 22:10 | 13.60311 | -63.28502 | 36999 ft | 478 kts | 149° |
| 2026-05-03 22:10 | 13.54593 | -63.25005 | 36998 ft | 478 kts | 149° |
| 2026-05-03 22:11 | 13.48871 | -63.21507 | 36999 ft | 479 kts | 149° |
| 2026-05-03 22:11 | 13.43147 | -63.18010 | 36999 ft | 478 kts | 149° |
| 2026-05-03 22:12 | 13.37419 | -63.14512 | 36998 ft | 479 kts | 149° |
| 2026-05-03 22:12 | 13.31696 | -63.11019 | 36998 ft | 479 kts | 149° |
| 2026-05-03 22:13 | 13.25971 | -63.07527 | 36999 ft | 479 kts | 149° |
| 2026-05-03 22:13 | 13.20248 | -63.04037 | 36999 ft | 479 kts | 149° |
| 2026-05-03 22:14 | 13.14519 | -63.00545 | 36999 ft | 479 kts | 149° |
| 2026-05-03 22:14 | 13.08789 | -62.97055 | 36990 ft | 479 kts | 149° |
| 2026-05-03 22:15 | 13.03058 | -62.93565 | 36990 ft | 479 kts | 149° |
| 2026-05-03 22:15 | 12.97325 | -62.90077 | 36988 ft | 477 kts | 149° |
| 2026-05-03 22:16 | 12.91675 | -62.86641 | 36987 ft | 469 kts | 149° |
| 2026-05-03 22:16 | 12.86099 | -62.83251 | 36992 ft | 470 kts | 149° |
| 2026-05-03 22:17 | 12.80480 | -62.79837 | 36992 ft | 470 kts | 149° |
| 2026-05-03 22:17 | 12.74853 | -62.76420 | 36988 ft | 470 kts | 149° |
| 2026-05-03 22:18 | 12.69230 | -62.73008 | 36989 ft | 470 kts | 149° |
| 2026-05-03 22:18 | 12.63603 | -62.69594 | 36988 ft | 470 kts | 150° |
| 2026-05-03 22:19 | 12.57970 | -62.66179 | 36991 ft | 470 kts | 150° |
| 2026-05-03 22:19 | 12.52334 | -62.62764 | 36991 ft | 470 kts | 150° |
| 2026-05-03 22:19 | 12.49526 | -62.61062 | 36349 ft | 471 kts | 150° |
| 2026-05-03 22:20 | 12.46679 | -62.59339 | 35335 ft | 479 kts | 150° |
| 2026-05-03 22:20 | 12.43805 | -62.57599 | 34615 ft | 479 kts | 150° |
| 2026-05-03 22:20 | 12.40956 | -62.55875 | 34198 ft | 472 kts | 150° |
| 2026-05-03 22:20 | 12.38156 | -62.54180 | 33843 ft | 464 kts | 150° |
| 2026-05-03 22:21 | 12.35426 | -62.52529 | 33365 ft | 460 kts | 150° |
| 2026-05-03 22:21 | 12.32679 | -62.50867 | 32770 ft | 459 kts | 150° |
| 2026-05-03 22:21 | 12.29936 | -62.49208 | 32168 ft | 457 kts | 150° |
| 2026-05-03 22:21 | 12.27206 | -62.47558 | 31639 ft | 454 kts | 150° |
| 2026-05-03 22:22 | 12.24494 | -62.45918 | 31127 ft | 451 kts | 150° |
| 2026-05-03 22:22 | 12.21805 | -62.44294 | 30607 ft | 448 kts | 150° |
| 2026-05-03 22:22 | 12.19132 | -62.42679 | 30075 ft | 445 kts | 150° |
| 2026-05-03 22:22 | 12.16471 | -62.41072 | 29553 ft | 442 kts | 150° |
| 2026-05-03 22:23 | 12.13833 | -62.39479 | 29033 ft | 439 kts | 150° |
| 2026-05-03 22:23 | 12.11208 | -62.37894 | 28508 ft | 436 kts | 150° |
| 2026-05-03 22:23 | 12.08604 | -62.36323 | 28018 ft | 433 kts | 150° |
| 2026-05-03 22:23 | 12.06019 | -62.34763 | 27519 ft | 430 kts | 150° |
| 2026-05-03 22:24 | 12.03452 | -62.33214 | 27027 ft | 427 kts | 150° |
| 2026-05-03 22:24 | 12.00903 | -62.31677 | 26542 ft | 424 kts | 150° |
| 2026-05-03 22:24 | 11.98372 | -62.30151 | 26067 ft | 421 kts | 149° |
| 2026-05-03 22:24 | 11.95866 | -62.28640 | 25598 ft | 417 kts | 149° |
| 2026-05-03 22:25 | 11.93374 | -62.27138 | 25140 ft | 414 kts | 149° |
| 2026-05-03 22:25 | 11.90905 | -62.25650 | 24683 ft | 411 kts | 149° |
| 2026-05-03 22:25 | 11.88454 | -62.24174 | 24241 ft | 407 kts | 149° |
| 2026-05-03 22:25 | 11.86020 | -62.22707 | 23797 ft | 404 kts | 149° |
| 2026-05-03 22:26 | 11.83611 | -62.21256 | 23365 ft | 401 kts | 149° |
| 2026-05-03 22:26 | 11.81221 | -62.19817 | 22943 ft | 397 kts | 149° |
| 2026-05-03 22:26 | 11.78844 | -62.18387 | 22454 ft | 396 kts | 149° |
| 2026-05-03 22:26 | 11.76479 | -62.16963 | 22039 ft | 393 kts | 149° |
| 2026-05-03 22:27 | 11.74141 | -62.15556 | 21656 ft | 389 kts | 149° |
| 2026-05-03 22:27 | 11.71819 | -62.14159 | 21252 ft | 385 kts | 149° |
| 2026-05-03 22:27 | 11.69520 | -62.12775 | 20851 ft | 382 kts | 149° |
| 2026-05-03 22:27 | 11.67243 | -62.11406 | 20454 ft | 379 kts | 149° |
| 2026-05-03 22:28 | 11.64982 | -62.10046 | 20060 ft | 376 kts | 149° |
| 2026-05-03 22:28 | 11.62741 | -62.08698 | 19670 ft | 373 kts | 149° |
| 2026-05-03 22:28 | 11.60518 | -62.07361 | 19283 ft | 369 kts | 149° |
| 2026-05-03 22:28 | 11.58313 | -62.06036 | 18899 ft | 366 kts | 149° |
| 2026-05-03 22:29 | 11.56126 | -62.04722 | 18517 ft | 363 kts | 149° |
| 2026-05-03 22:29 | 11.53959 | -62.03420 | 18139 ft | 360 kts | 148° |
| 2026-05-03 22:29 | 11.51835 | -62.02144 | 17768 ft | 358 kts | 148° |
| 2026-05-03 22:29 | 11.49654 | -62.00835 | 17346 ft | 370 kts | 148° |
| 2026-05-03 22:30 | 11.47409 | -61.99486 | 16947 ft | 380 kts | 148° |
| 2026-05-03 22:30 | 11.45114 | -61.98108 | 16562 ft | 385 kts | 148° |
| 2026-05-03 22:30 | 11.42795 | -61.96716 | 16166 ft | 386 kts | 148° |
| 2026-05-03 22:30 | 11.40487 | -61.95330 | 15777 ft | 384 kts | 148° |
| 2026-05-03 22:31 | 11.38192 | -61.93953 | 15369 ft | 382 kts | 148° |
| 2026-05-03 22:31 | 11.35906 | -61.92582 | 14966 ft | 380 kts | 148° |
| 2026-05-03 22:31 | 11.33636 | -61.91221 | 14557 ft | 378 kts | 148° |
| 2026-05-03 22:31 | 11.31380 | -61.89867 | 14154 ft | 375 kts | 148° |
| 2026-05-03 22:32 | 11.29139 | -61.88524 | 13755 ft | 373 kts | 148° |
| 2026-05-03 22:32 | 11.26908 | -61.87187 | 13381 ft | 370 kts | 148° |
| 2026-05-03 22:32 | 11.24693 | -61.85862 | 13237 ft | 367 kts | 148° |
| 2026-05-03 22:32 | 11.23247 | -61.84976 | 12894 ft | 367 kts | 148° |
| 2026-05-03 22:33 | 11.21055 | -61.83634 | 12371 ft | 367 kts | 148° |
| 2026-05-03 22:33 | 11.18883 | -61.82309 | 12017 ft | 362 kts | 148° |
| 2026-05-03 22:33 | 11.16729 | -61.80996 | 11654 ft | 361 kts | 148° |
| 2026-05-03 22:33 | 11.14577 | -61.79684 | 11266 ft | 360 kts | 148° |
| 2026-05-03 22:34 | 11.12440 | -61.78383 | 10873 ft | 358 kts | 148° |
| 2026-05-03 22:34 | 11.10309 | -61.77085 | 10498 ft | 355 kts | 148° |
| 2026-05-03 22:34 | 11.08189 | -61.75794 | 10317 ft | 355 kts | 148° |
| 2026-05-03 22:34 | 11.06072 | -61.74505 | 10166 ft | 354 kts | 148° |
| 2026-05-03 22:35 | 11.03957 | -61.73218 | 9921 ft | 354 kts | 148° |
| 2026-05-03 22:35 | 11.01876 | -61.71951 | 9515 ft | 341 kts | 148° |
| 2026-05-03 22:35 | 10.99881 | -61.70738 | 9151 ft | 327 kts | 148° |
| 2026-05-03 22:35 | 10.97972 | -61.69576 | 8794 ft | 313 kts | 148° |
| 2026-05-03 22:36 | 10.96138 | -61.68461 | 8460 ft | 301 kts | 148° |
| 2026-05-03 22:36 | 10.94368 | -61.67386 | 8150 ft | 293 kts | 148° |
| 2026-05-03 22:36 | 10.92622 | -61.66323 | 7841 ft | 292 kts | 148° |
| 2026-05-03 22:36 | 10.90882 | -61.65265 | 7518 ft | 290 kts | 148° |
| 2026-05-03 22:37 | 10.89154 | -61.64214 | 7202 ft | 288 kts | 148° |
| 2026-05-03 22:37 | 10.87438 | -61.63171 | 6891 ft | 286 kts | 148° |
| 2026-05-03 22:37 | 10.85755 | -61.62148 | 6588 ft | 285 kts | 148° |
| 2026-05-03 22:37 | 10.84062 | -61.61119 | 6262 ft | 283 kts | 148° |
| 2026-05-03 22:38 | 10.82379 | -61.60097 | 5965 ft | 281 kts | 148° |
| 2026-05-03 22:38 | 10.80707 | -61.59081 | 5651 ft | 280 kts | 148° |
| 2026-05-03 22:38 | 10.79051 | -61.58075 | 5348 ft | 278 kts | 148° |
| 2026-05-03 22:38 | 10.77396 | -61.57070 | 5036 ft | 276 kts | 148° |
| 2026-05-03 22:39 | 10.75750 | -61.56070 | 4732 ft | 275 kts | 148° |
| 2026-05-03 22:39 | 10.74114 | -61.55077 | 4427 ft | 273 kts | 148° |
| 2026-05-03 22:39 | 10.72487 | -61.54090 | 4155 ft | 271 kts | 148° |
| 2026-05-03 22:39 | 10.70896 | -61.53125 | 4084 ft | 262 kts | 148° |
| 2026-05-03 22:40 | 10.69248 | -61.52438 | 3963 ft | 255 kts | 170° |
| 2026-05-03 22:40 | 10.67496 | -61.52351 | 3765 ft | 251 kts | 177° |
| 2026-05-03 22:40 | 10.65789 | -61.52319 | 3603 ft | 245 kts | 177° |
| 2026-05-03 22:40 | 10.64100 | -61.52296 | 3360 ft | 241 kts | 178° |
| 2026-05-03 22:41 | 10.62450 | -61.52278 | 3218 ft | 233 kts | 175° |
| 2026-05-03 22:41 | 10.60948 | -61.51851 | 3043 ft | 221 kts | 144° |
| 2026-05-03 22:41 | 10.59959 | -61.50729 | 2853 ft | 212 kts | 113° |
| 2026-05-03 22:41 | 10.59632 | -61.49280 | 2619 ft | 214 kts | 92° |
| 2026-05-03 22:42 | 10.59585 | -61.47806 | 2469 ft | 203 kts | 91° |
| 2026-05-03 22:42 | 10.59558 | -61.46405 | 2282 ft | 194 kts | 91° |
| 2026-05-03 22:42 | 10.59542 | -61.45101 | 2089 ft | 173 kts | 91° |
| 2026-05-03 22:42 | 10.59531 | -61.43924 | 1777 ft | 162 kts | 90° |
| 2026-05-03 22:43 | 10.59513 | -61.42797 | 1552 ft | 158 kts | 91° |
| 2026-05-03 22:43 | 10.59513 | -61.41674 | 1320 ft | 159 kts | 91° |
| 2026-05-03 22:43 | 10.59517 | -61.40559 | 1114 ft | 156 kts | 90° |
| 2026-05-03 22:43 | 10.59524 | -61.39458 | 911 ft | 157 kts | 90° |
| 2026-05-03 22:44 | 10.59518 | -61.38349 | 737 ft | 157 kts | 90° |
| 2026-05-03 22:44 | 10.59523 | -61.37245 | 577 ft | 156 kts | 90° |
| 2026-05-03 22:44 | 10.59524 | -61.36145 | 417 ft | 156 kts | 90° |
| 2026-05-03 22:44 | 10.59531 | -61.35047 | 227 ft | 155 kts | 90° |
| 2026-05-03 22:45 | 10.59536 | -61.34031 | 199 ft | 124 kts | 90° |
| 2026-05-03 22:45 | 10.59539 | -61.33413 | 196 ft | 57 kts | 90° |
| 2026-05-03 22:45 | 10.59540 | -61.33076 | 204 ft | 42 kts | 89° |
| 2026-05-03 22:45 | 10.59662 | -61.32958 | 211 ft | 21 kts | 356° |
| 2026-05-03 22:46 | 10.59712 | -61.33051 | 204 ft | 16 kts | 272° |
| 2026-05-03 22:46 | 10.59711 | -61.33179 | 206 ft | 20 kts | 270° |
| 2026-05-03 22:46 | 10.59712 | -61.33337 | 207 ft | 23 kts | 271° |
| 2026-05-03 22:46 | 10.59711 | -61.33454 | 208 ft | 18 kts | 269° |
| 2026-05-03 22:47 | 10.59710 | -61.33588 | 207 ft | 19 kts | 269° |
| 2026-05-03 22:47 | 10.59712 | -61.33701 | 209 ft | 12 kts | 284° |
| 2026-05-03 22:47 | 10.59782 | -61.33734 | 211 ft | 12 kts | 357° |
| 2026-05-03 22:47 | 10.59869 | -61.33735 | 201 ft | 12 kts | 353° |
| 2026-05-03 22:48 | 10.59912 | -61.33768 | 211 ft | 7 kts | 308° |
| 2026-05-03 22:48 | 10.59942 | -61.33808 | 201 ft | 7 kts | 307° |
| 2026-05-03 22:48 | 10.59949 | -61.33818 | 201 ft | 0 kts | 307° |